sensor_id;sensor_type;location;lat;lon;timestamp;pressure;altitude;pressure_sealevel;temperature;humidity
71903;BME280;59778;50.310;18.780;2023-05-11T00:09:47;98848.22;;;11.59;59.23
71903;BME280;59778;50.310;18.780;2023-05-11T00:25:08;98841.81;;;11.39;59.55
71903;BME280;59778;50.310;18.780;2023-05-11T00:40:30;98842.31;;;10.72;61.40
71903;BME280;59778;50.310;18.780;2023-05-11T00:55:52;98851.81;;;10.61;62.52
71903;BME280;59778;50.310;18.780;2023-05-11T01:11:29;98851.63;;;10.84;61.24
71903;BME280;59778;50.310;18.780;2023-05-11T01:27:11;98849.72;;;10.63;62.86
71903;BME280;59778;50.310;18.780;2023-05-11T01:42:47;98843.41;;;10.56;63.54
71903;BME280;59778;50.310;18.780;2023-05-11T01:58:12;98847.81;;;10.21;65.94
71903;BME280;59778;50.310;18.780;2023-05-11T02:13:36;98865.41;;;9.96;66.65
71903;BME280;59778;50.310;18.780;2023-05-11T02:28:59;98856.66;;;9.79;67.90
71903;BME280;59778;50.310;18.780;2023-05-11T02:44:21;98860.75;;;9.61;69.03
71903;BME280;59778;50.310;18.780;2023-05-11T02:59:44;98851.41;;;9.48;68.41
71903;BME280;59778;50.310;18.780;2023-05-11T03:15:06;98847.59;;;9.43;69.50
71903;BME280;59778;50.310;18.780;2023-05-11T03:30:28;98857.59;;;9.28;70.34
71903;BME280;59778;50.310;18.780;2023-05-11T03:45:52;98857.13;;;9.54;68.81
71903;BME280;59778;50.310;18.780;2023-05-11T04:01:13;98854.13;;;9.34;71.44
71903;BME280;59778;50.310;18.780;2023-05-11T04:16:35;98859.66;;;9.55;70.35
71903;BME280;59778;50.310;18.780;2023-05-11T04:31:56;98876.28;;;9.96;71.12
71903;BME280;59778;50.310;18.780;2023-05-11T04:47:18;98880.28;;;10.29;67.48
71903;BME280;59778;50.310;18.780;2023-05-11T05:02:39;98878.38;;;11.08;65.83
71903;BME280;59778;50.310;18.780;2023-05-11T05:18:02;98877.44;;;10.73;66.85
71903;BME280;59778;50.310;18.780;2023-05-11T05:33:23;98889.19;;;10.80;66.70
71903;BME280;59778;50.310;18.780;2023-05-11T05:48:45;98897.03;;;11.11;67.61
71903;BME280;59778;50.310;18.780;2023-05-11T06:04:06;98890.56;;;11.96;65.33
71903;BME280;59778;50.310;18.780;2023-05-11T06:19:27;98896.81;;;13.63;63.00
71903;BME280;59778;50.310;18.780;2023-05-11T06:34:49;98899.81;;;15.15;58.05
71903;BME280;59778;50.310;18.780;2023-05-11T06:50:10;98890.34;;;16.10;54.24
71903;BME280;59778;50.310;18.780;2023-05-11T07:05:31;98885.91;;;16.64;50.03
71903;BME280;59778;50.310;18.780;2023-05-11T07:20:53;98874.28;;;17.86;47.02
71903;BME280;59778;50.310;18.780;2023-05-11T07:36:14;98874.72;;;18.29;44.46
71903;BME280;59778;50.310;18.780;2023-05-11T07:51:36;98881.91;;;19.27;41.86
71903;BME280;59778;50.310;18.780;2023-05-11T08:06:57;98876.88;;;19.24;42.46
71903;BME280;59778;50.310;18.780;2023-05-11T08:22:18;98868.25;;;19.82;43.40
71903;BME280;59778;50.310;18.780;2023-05-11T08:37:40;98855.84;;;20.01;39.71
71903;BME280;59778;50.310;18.780;2023-05-11T08:53:01;98845.94;;;20.22;39.78
71903;BME280;59778;50.310;18.780;2023-05-11T09:08:23;98849.38;;;20.73;37.04
71903;BME280;59778;50.310;18.780;2023-05-11T09:23:54;98842.06;;;20.01;40.59
71903;BME280;59778;50.310;18.780;2023-05-11T09:39:16;98836.84;;;20.65;36.31
71903;BME280;59778;50.310;18.780;2023-05-11T09:54:43;98825.06;;;20.48;35.77
71903;BME280;59778;50.310;18.780;2023-05-11T10:10:06;98803.53;;;21.25;35.66
71903;BME280;59778;50.310;18.780;2023-05-11T10:25:28;98799.19;;;20.10;35.85
71903;BME280;59778;50.310;18.780;2023-05-11T10:40:50;98783.44;;;21.72;35.28
71903;BME280;59778;50.310;18.780;2023-05-11T11:11:42;98759.13;;;22.31;23.92
71903;BME280;59778;50.310;18.780;2023-05-11T11:27:08;98758.75;;;23.10;24.54
71903;BME280;59778;50.310;18.780;2023-05-11T11:57:50;98762.66;;;23.49;19.71
71903;BME280;59778;50.310;18.780;2023-05-11T12:13:12;98737.91;;;24.57;20.06
71903;BME280;59778;50.310;18.780;2023-05-11T12:28:34;98738.78;;;23.63;23.52
71903;BME280;59778;50.310;18.780;2023-05-11T12:43:56;98720.22;;;24.82;22.01
71903;BME280;59778;50.310;18.780;2023-05-11T12:59:32;98697.59;;;24.06;23.17
71903;BME280;59778;50.310;18.780;2023-05-11T13:15:08;98683.31;;;24.76;24.37
71903;BME280;59778;50.310;18.780;2023-05-11T13:30:31;98682.66;;;23.97;25.19
71903;BME280;59778;50.310;18.780;2023-05-11T13:45:52;98670.31;;;24.28;26.72
71903;BME280;59778;50.310;18.780;2023-05-11T14:01:13;98655.13;;;24.93;23.58
71903;BME280;59778;50.310;18.780;2023-05-11T14:16:35;98653.09;;;25.04;26.03
71903;BME280;59778;50.310;18.780;2023-05-11T14:31:56;98649.53;;;24.59;25.56
71903;BME280;59778;50.310;18.780;2023-05-11T14:47:18;98642.19;;;24.73;24.71
71903;BME280;59778;50.310;18.780;2023-05-11T15:02:39;98636.41;;;25.32;26.38
71903;BME280;59778;50.310;18.780;2023-05-11T15:18:01;98625.09;;;24.95;24.85
71903;BME280;59778;50.310;18.780;2023-05-11T15:33:23;98624.31;;;24.56;24.66
71903;BME280;59778;50.310;18.780;2023-05-11T15:48:44;98628.69;;;23.64;25.47
71903;BME280;59778;50.310;18.780;2023-05-11T16:04:05;98627.16;;;23.02;27.70
71903;BME280;59778;50.310;18.780;2023-05-11T16:19:27;98626.97;;;21.86;29.71
71903;BME280;59778;50.310;18.780;2023-05-11T16:34:49;98636.31;;;21.12;30.53
71903;BME280;59778;50.310;18.780;2023-05-11T16:50:11;98637.47;;;20.53;32.42
71903;BME280;59778;50.310;18.780;2023-05-11T17:05:34;98646.75;;;19.93;33.71
71903;BME280;59778;50.310;18.780;2023-05-11T17:20:55;98657.72;;;19.28;35.42
71903;BME280;59778;50.310;18.780;2023-05-11T17:36:17;98674.81;;;18.75;37.02
71903;BME280;59778;50.310;18.780;2023-05-11T17:51:38;98690.69;;;18.40;37.06
71903;BME280;59778;50.310;18.780;2023-05-11T18:07:00;98700.84;;;18.11;37.94
71903;BME280;59778;50.310;18.780;2023-05-11T18:22:21;98713.03;;;17.75;38.91
71903;BME280;59778;50.310;18.780;2023-05-11T18:37:43;98726.66;;;17.47;39.48
71903;BME280;59778;50.310;18.780;2023-05-11T18:53:04;98732.88;;;17.19;40.06
71903;BME280;59778;50.310;18.780;2023-05-11T19:08:26;98761.63;;;16.93;41.43
71903;BME280;59778;50.310;18.780;2023-05-11T19:23:49;98772.06;;;16.61;42.58
71903;BME280;59778;50.310;18.780;2023-05-11T19:39:10;98778.59;;;16.30;44.06
71903;BME280;59778;50.310;18.780;2023-05-11T19:54:32;98780.28;;;16.13;44.95
71903;BME280;59778;50.310;18.780;2023-05-11T20:09:53;98791.56;;;15.69;47.07
71903;BME280;59778;50.310;18.780;2023-05-11T20:25:15;98797.28;;;15.42;48.14
71903;BME280;59778;50.310;18.780;2023-05-11T20:40:36;98797.56;;;15.34;48.12
71903;BME280;59778;50.310;18.780;2023-05-11T20:55:57;98797.19;;;15.06;49.10
71903;BME280;59778;50.310;18.780;2023-05-11T21:11:19;98804.50;;;14.87;49.33
71903;BME280;59778;50.310;18.780;2023-05-11T21:26:40;98798.50;;;14.72;50.05
71903;BME280;59778;50.310;18.780;2023-05-11T21:42:02;98810.03;;;14.49;50.33
71903;BME280;59778;50.310;18.780;2023-05-11T21:57:25;98808.41;;;14.35;50.55
71903;BME280;59778;50.310;18.780;2023-05-11T22:12:46;98813.72;;;14.10;51.07
71903;BME280;59778;50.310;18.780;2023-05-11T22:28:08;98816.19;;;13.74;51.69
71903;BME280;59778;50.310;18.780;2023-05-11T22:43:29;98821.03;;;13.65;52.55
71903;BME280;59778;50.310;18.780;2023-05-11T22:58:50;98828.00;;;13.42;53.01
71903;BME280;59778;50.310;18.780;2023-05-11T23:14:13;98831.56;;;13.49;53.91
71903;BME280;59778;50.310;18.780;2023-05-11T23:29:35;98835.56;;;13.40;52.95
71903;BME280;59778;50.310;18.780;2023-05-11T23:44:57;98840.16;;;13.00;54.96
